sensor_id;sensor_type;location;lat;lon;timestamp;pressure;altitude;pressure_sealevel;temperature;humidity
49529;BME280;35423;37.320;-121.762;2022-07-23T00:01:13;99642.39;;;46.06;3.21
49529;BME280;35423;37.320;-121.762;2022-07-23T00:03:39;99642.96;;;45.78;3.58
49529;BME280;35423;37.320;-121.762;2022-07-23T00:06:04;99642.56;;;45.86;3.46
49529;BME280;35423;37.320;-121.762;2022-07-23T00:08:31;99644.13;;;45.58;3.37
49529;BME280;35423;37.320;-121.762;2022-07-23T00:10:57;99645.06;;;45.08;3.63
49529;BME280;35423;37.320;-121.762;2022-07-23T00:13:24;99645.84;;;45.12;3.79
49529;BME280;35423;37.320;-121.762;2022-07-23T00:15:50;99643.81;;;44.71;3.90
49529;BME280;35423;37.320;-121.762;2022-07-23T00:18:18;99642.14;;;44.44;3.93
49529;BME280;35423;37.320;-121.762;2022-07-23T00:20:45;99639.15;;;44.48;4.06
49529;BME280;35423;37.320;-121.762;2022-07-23T00:23:12;99639.10;;;44.56;4.17
49529;BME280;35423;37.320;-121.762;2022-07-23T00:25:40;99635.38;;;44.30;4.43
49529;BME280;35423;37.320;-121.762;2022-07-23T00:28:07;99637.62;;;44.41;4.51
49529;BME280;35423;37.320;-121.762;2022-07-23T00:30:36;99636.54;;;44.03;4.52
49529;BME280;35423;37.320;-121.762;2022-07-23T00:33:06;99638.03;;;43.86;4.17
49529;BME280;35423;37.320;-121.762;2022-07-23T00:35:34;99637.06;;;43.69;4.04
49529;BME280;35423;37.320;-121.762;2022-07-23T00:37:59;99630.62;;;43.86;3.77
49529;BME280;35423;37.320;-121.762;2022-07-23T00:40:26;99628.39;;;43.74;4.11
49529;BME280;35423;37.320;-121.762;2022-07-23T00:42:51;99633.32;;;43.64;3.91
49529;BME280;35423;37.320;-121.762;2022-07-23T00:45:16;99633.29;;;43.49;4.08
49529;BME280;35423;37.320;-121.762;2022-07-23T00:47:42;99634.70;;;43.78;4.13
49529;BME280;35423;37.320;-121.762;2022-07-23T00:50:09;99632.69;;;43.41;4.23
49529;BME280;35423;37.320;-121.762;2022-07-23T00:52:38;99633.73;;;43.58;4.41
49529;BME280;35423;37.320;-121.762;2022-07-23T00:55:14;99633.00;;;43.43;4.43
49529;BME280;35423;37.320;-121.762;2022-07-23T00:57:41;99632.60;;;43.06;4.14
49529;BME280;35423;37.320;-121.762;2022-07-23T01:00:09;99628.01;;;43.14;4.50
49529;BME280;35423;37.320;-121.762;2022-07-23T01:02:32;99620.17;;;43.12;4.87
49529;BME280;35423;37.320;-121.762;2022-07-23T01:04:58;99627.04;;;42.81;5.12
49529;BME280;35423;37.320;-121.762;2022-07-23T01:07:26;99622.90;;;42.73;5.38
49529;BME280;35423;37.320;-121.762;2022-07-23T01:09:55;99621.72;;;42.72;5.62
49529;BME280;35423;37.320;-121.762;2022-07-23T01:12:19;99628.21;;;42.32;6.13
49529;BME280;35423;37.320;-121.762;2022-07-23T01:14:50;99627.49;;;42.36;6.19
49529;BME280;35423;37.320;-121.762;2022-07-23T01:17:16;99627.28;;;42.00;6.14
49529;BME280;35423;37.320;-121.762;2022-07-23T01:19:44;99626.34;;;41.82;6.24
49529;BME280;35423;37.320;-121.762;2022-07-23T01:22:11;99624.37;;;41.86;6.35
49529;BME280;35423;37.320;-121.762;2022-07-23T01:24:38;99620.24;;;41.70;6.48
49529;BME280;35423;37.320;-121.762;2022-07-23T01:27:05;99621.04;;;41.64;6.56
49529;BME280;35423;37.320;-121.762;2022-07-23T01:29:31;99615.87;;;41.39;6.69
49529;BME280;35423;37.320;-121.762;2022-07-23T01:31:57;99615.83;;;41.24;6.87
49529;BME280;35423;37.320;-121.762;2022-07-23T01:34:24;99613.74;;;40.77;6.74
49529;BME280;35423;37.320;-121.762;2022-07-23T01:36:50;99615.49;;;40.66;7.12
49529;BME280;35423;37.320;-121.762;2022-07-23T01:39:18;99617.54;;;40.48;7.57
49529;BME280;35423;37.320;-121.762;2022-07-23T01:41:46;99612.05;;;40.42;7.50
49529;BME280;35423;37.320;-121.762;2022-07-23T01:44:12;99615.75;;;40.15;8.00
49529;BME280;35423;37.320;-121.762;2022-07-23T01:46:38;99613.37;;;40.22;8.12
49529;BME280;35423;37.320;-121.762;2022-07-23T01:49:02;99610.97;;;40.00;8.04
49529;BME280;35423;37.320;-121.762;2022-07-23T01:51:31;99613.75;;;40.03;8.04
49529;BME280;35423;37.320;-121.762;2022-07-23T01:53:55;99616.32;;;39.60;8.25
49529;BME280;35423;37.320;-121.762;2022-07-23T01:56:21;99612.27;;;39.88;8.53
49529;BME280;35423;37.320;-121.762;2022-07-23T01:58:46;99616.67;;;39.45;8.88
49529;BME280;35423;37.320;-121.762;2022-07-23T02:01:17;99619.11;;;39.40;9.12
49529;BME280;35423;37.320;-121.762;2022-07-23T02:03:44;99624.43;;;39.18;9.34
49529;BME280;35423;37.320;-121.762;2022-07-23T02:06:12;99627.57;;;38.97;9.54
49529;BME280;35423;37.320;-121.762;2022-07-23T02:08:40;99631.33;;;38.61;9.83
49529;BME280;35423;37.320;-121.762;2022-07-23T02:11:06;99631.52;;;38.33;10.18
49529;BME280;35423;37.320;-121.762;2022-07-23T02:13:31;99629.79;;;38.39;10.41
49529;BME280;35423;37.320;-121.762;2022-07-23T02:15:56;99629.82;;;37.97;10.60
49529;BME280;35423;37.320;-121.762;2022-07-23T02:18:24;99628.67;;;38.01;10.77
49529;BME280;35423;37.320;-121.762;2022-07-23T02:20:50;99630.06;;;37.72;10.89
49529;BME280;35423;37.320;-121.762;2022-07-23T02:23:15;99624.83;;;37.85;11.01
49529;BME280;35423;37.320;-121.762;2022-07-23T02:25:43;99627.32;;;37.87;11.19
49529;BME280;35423;37.320;-121.762;2022-07-23T02:28:10;99633.24;;;37.47;11.17
49529;BME280;35423;37.320;-121.762;2022-07-23T02:30:36;99631.00;;;37.57;11.13
49529;BME280;35423;37.320;-121.762;2022-07-23T02:33:02;99629.61;;;37.16;11.19
49529;BME280;35423;37.320;-121.762;2022-07-23T02:35:37;99629.68;;;37.26;11.30
49529;BME280;35423;37.320;-121.762;2022-07-23T02:37:54;99627.97;;;36.95;11.44
49529;BME280;35423;37.320;-121.762;2022-07-23T02:40:22;99630.49;;;36.38;11.66
49529;BME280;35423;37.320;-121.762;2022-07-23T02:42:47;99633.79;;;36.96;11.89
49529;BME280;35423;37.320;-121.762;2022-07-23T02:45:16;99632.89;;;36.07;12.13
49529;BME280;35423;37.320;-121.762;2022-07-23T02:47:42;99638.28;;;35.83;12.34
49529;BME280;35423;37.320;-121.762;2022-07-23T02:50:07;99644.84;;;35.88;12.45
49529;BME280;35423;37.320;-121.762;2022-07-23T02:52:32;99648.31;;;35.97;12.50
49529;BME280;35423;37.320;-121.762;2022-07-23T02:55:00;99653.10;;;35.79;12.54
49529;BME280;35423;37.320;-121.762;2022-07-23T02:57:26;99656.43;;;35.56;12.66
49529;BME280;35423;37.320;-121.762;2022-07-23T02:59:52;99659.52;;;35.35;12.75
49529;BME280;35423;37.320;-121.762;2022-07-23T03:02:18;99659.60;;;35.26;12.86
49529;BME280;35423;37.320;-121.762;2022-07-23T03:04:44;99657.79;;;34.81;13.00
49529;BME280;35423;37.320;-121.762;2022-07-23T03:07:11;99658.33;;;34.85;13.09
49529;BME280;35423;37.320;-121.762;2022-07-23T03:09:38;99658.59;;;34.77;13.18
49529;BME280;35423;37.320;-121.762;2022-07-23T03:12:04;99657.60;;;34.34;13.24
49529;BME280;35423;37.320;-121.762;2022-07-23T03:14:31;99655.68;;;34.43;13.35
49529;BME280;35423;37.320;-121.762;2022-07-23T03:16:56;99655.92;;;34.50;13.46
49529;BME280;35423;37.320;-121.762;2022-07-23T03:19:24;99658.32;;;34.27;13.64
49529;BME280;35423;37.320;-121.762;2022-07-23T03:21:50;99656.81;;;34.28;13.77
49529;BME280;35423;37.320;-121.762;2022-07-23T03:24:17;99655.84;;;33.79;13.74
49529;BME280;35423;37.320;-121.762;2022-07-23T03:26:50;99655.90;;;33.62;13.86
49529;BME280;35423;37.320;-121.762;2022-07-23T03:29:16;99656.37;;;33.71;13.97
49529;BME280;35423;37.320;-121.762;2022-07-23T03:31:43;99657.80;;;33.82;14.11
49529;BME280;35423;37.320;-121.762;2022-07-23T03:34:08;99658.46;;;33.32;14.27
49529;BME280;35423;37.320;-121.762;2022-07-23T03:36:36;99656.70;;;33.14;14.35
49529;BME280;35423;37.320;-121.762;2022-07-23T03:39:04;99665.65;;;33.06;14.11
49529;BME280;35423;37.320;-121.762;2022-07-23T03:41:32;99670.95;;;33.57;14.16
49529;BME280;35423;37.320;-121.762;2022-07-23T03:43:58;99671.42;;;33.22;14.42
49529;BME280;35423;37.320;-121.762;2022-07-23T03:46:25;99675.10;;;33.00;14.54
49529;BME280;35423;37.320;-121.762;2022-07-23T03:48:55;99675.68;;;33.02;14.66
49529;BME280;35423;37.320;-121.762;2022-07-23T03:51:20;99676.47;;;32.77;14.65
49529;BME280;35423;37.320;-121.762;2022-07-23T03:53:52;99675.57;;;32.41;14.54
49529;BME280;35423;37.320;-121.762;2022-07-23T03:56:17;99673.65;;;32.62;14.38
49529;BME280;35423;37.320;-121.762;2022-07-23T03:58:42;99668.81;;;32.39;14.38
49529;BME280;35423;37.320;-121.762;2022-07-23T04:01:16;99668.51;;;32.34;14.35
49529;BME280;35423;37.320;-121.762;2022-07-23T04:03:42;99667.78;;;32.46;14.32
49529;BME280;35423;37.320;-121.762;2022-07-23T04:06:08;99670.18;;;32.38;14.34
49529;BME280;35423;37.320;-121.762;2022-07-23T04:08:35;99673.28;;;31.90;14.38
49529;BME280;35423;37.320;-121.762;2022-07-23T04:11:01;99675.27;;;32.15;14.49
49529;BME280;35423;37.320;-121.762;2022-07-23T04:13:28;99678.41;;;32.06;14.54
49529;BME280;35423;37.320;-121.762;2022-07-23T04:15:56;99675.92;;;32.18;14.47
49529;BME280;35423;37.320;-121.762;2022-07-23T04:18:24;99676.23;;;32.01;14.56
49529;BME280;35423;37.320;-121.762;2022-07-23T04:20:52;99673.63;;;31.78;14.73
49529;BME280;35423;37.320;-121.762;2022-07-23T04:23:18;99675.03;;;31.39;14.94
49529;BME280;35423;37.320;-121.762;2022-07-23T04:25:47;99673.76;;;31.28;15.07
49529;BME280;35423;37.320;-121.762;2022-07-23T04:28:16;99675.53;;;31.16;15.22
49529;BME280;35423;37.320;-121.762;2022-07-23T04:30:44;99679.92;;;31.14;15.35
49529;BME280;35423;37.320;-121.762;2022-07-23T04:33:14;99684.05;;;31.02;15.48
49529;BME280;35423;37.320;-121.762;2022-07-23T04:35:40;99686.51;;;31.00;15.62
49529;BME280;35423;37.320;-121.762;2022-07-23T04:38:06;99693.85;;;31.18;15.76
49529;BME280;35423;37.320;-121.762;2022-07-23T04:40:32;99699.01;;;30.54;15.99
49529;BME280;35423;37.320;-121.762;2022-07-23T04:43:00;99704.42;;;30.29;16.12
49529;BME280;35423;37.320;-121.762;2022-07-23T04:45:30;99704.89;;;30.47;16.35
49529;BME280;35423;37.320;-121.762;2022-07-23T04:47:58;99707.17;;;30.30;16.56
49529;BME280;35423;37.320;-121.762;2022-07-23T04:50:24;99711.91;;;30.22;16.73
49529;BME280;35423;37.320;-121.762;2022-07-23T04:52:50;99713.92;;;29.99;16.94
49529;BME280;35423;37.320;-121.762;2022-07-23T04:55:16;99720.35;;;30.40;17.17
49529;BME280;35423;37.320;-121.762;2022-07-23T04:57:42;99722.69;;;29.59;17.39
49529;BME280;35423;37.320;-121.762;2022-07-23T05:00:09;99722.64;;;29.55;17.53
49529;BME280;35423;37.320;-121.762;2022-07-23T05:02:36;99724.27;;;29.67;17.68
49529;BME280;35423;37.320;-121.762;2022-07-23T05:05:01;99726.21;;;29.37;17.93
49529;BME280;35423;37.320;-121.762;2022-07-23T05:07:26;99724.55;;;29.63;18.06
49529;BME280;35423;37.320;-121.762;2022-07-23T05:09:51;99720.68;;;29.39;18.22
49529;BME280;35423;37.320;-121.762;2022-07-23T05:12:16;99726.51;;;29.29;18.36
49529;BME280;35423;37.320;-121.762;2022-07-23T05:14:45;99729.38;;;29.05;18.43
49529;BME280;35423;37.320;-121.762;2022-07-23T05:17:12;99730.90;;;29.20;18.55
49529;BME280;35423;37.320;-121.762;2022-07-23T05:19:37;99731.30;;;28.99;18.82
49529;BME280;35423;37.320;-121.762;2022-07-23T05:22:06;99729.35;;;28.95;18.96
49529;BME280;35423;37.320;-121.762;2022-07-23T05:24:31;99723.48;;;28.73;19.14
49529;BME280;35423;37.320;-121.762;2022-07-23T05:26:59;99723.02;;;28.45;19.34
49529;BME280;35423;37.320;-121.762;2022-07-23T05:29:24;99724.84;;;28.56;19.52
49529;BME280;35423;37.320;-121.762;2022-07-23T05:31:50;99728.40;;;28.46;19.61
49529;BME280;35423;37.320;-121.762;2022-07-23T05:34:17;99729.81;;;28.08;19.74
49529;BME280;35423;37.320;-121.762;2022-07-23T05:36:43;99727.52;;;28.43;19.77
49529;BME280;35423;37.320;-121.762;2022-07-23T05:39:16;99724.24;;;28.13;19.81
49529;BME280;35423;37.320;-121.762;2022-07-23T05:41:41;99723.79;;;28.10;20.01
49529;BME280;35423;37.320;-121.762;2022-07-23T05:44:09;99724.04;;;28.17;20.19
49529;BME280;35423;37.320;-121.762;2022-07-23T05:46:35;99723.16;;;28.10;20.29
49529;BME280;35423;37.320;-121.762;2022-07-23T05:49:00;99727.07;;;28.01;20.42
49529;BME280;35423;37.320;-121.762;2022-07-23T05:51:28;99725.96;;;27.86;20.53
49529;BME280;35423;37.320;-121.762;2022-07-23T05:53:54;99727.74;;;27.78;20.68
49529;BME280;35423;37.320;-121.762;2022-07-23T05:56:20;99724.77;;;27.59;20.82
49529;BME280;35423;37.320;-121.762;2022-07-23T05:58:45;99722.31;;;27.46;21.01
49529;BME280;35423;37.320;-121.762;2022-07-23T06:01:12;99719.88;;;27.35;21.14
49529;BME280;35423;37.320;-121.762;2022-07-23T06:03:38;99718.07;;;27.46;21.24
49529;BME280;35423;37.320;-121.762;2022-07-23T06:06:05;99722.09;;;27.04;21.42
49529;BME280;35423;37.320;-121.762;2022-07-23T06:08:32;99722.38;;;27.26;21.53
49529;BME280;35423;37.320;-121.762;2022-07-23T06:10:58;99718.99;;;27.44;21.47
49529;BME280;35423;37.320;-121.762;2022-07-23T06:13:28;99717.54;;;27.00;21.70
49529;BME280;35423;37.320;-121.762;2022-07-23T06:15:55;99714.34;;;26.86;21.84
49529;BME280;35423;37.320;-121.762;2022-07-23T06:18:20;99714.84;;;27.16;21.88
49529;BME280;35423;37.320;-121.762;2022-07-23T06:20:45;99711.13;;;27.03;21.99
49529;BME280;35423;37.320;-121.762;2022-07-23T06:23:15;99708.08;;;26.93;22.08
49529;BME280;35423;37.320;-121.762;2022-07-23T06:25:41;99705.28;;;26.89;22.17
49529;BME280;35423;37.320;-121.762;2022-07-23T06:28:07;99700.74;;;26.80;22.19
49529;BME280;35423;37.320;-121.762;2022-07-23T06:30:33;99700.35;;;26.66;22.30
49529;BME280;35423;37.320;-121.762;2022-07-23T06:33:02;99697.15;;;26.55;22.42
49529;BME280;35423;37.320;-121.762;2022-07-23T06:35:28;99696.36;;;26.48;22.48
49529;BME280;35423;37.320;-121.762;2022-07-23T06:37:54;99697.17;;;26.38;22.57
49529;BME280;35423;37.320;-121.762;2022-07-23T06:40:19;99694.73;;;26.29;22.65
49529;BME280;35423;37.320;-121.762;2022-07-23T06:42:45;99695.02;;;26.23;22.54
49529;BME280;35423;37.320;-121.762;2022-07-23T06:45:14;99692.29;;;26.11;22.58
49529;BME280;35423;37.320;-121.762;2022-07-23T06:47:42;99695.40;;;26.03;22.48
49529;BME280;35423;37.320;-121.762;2022-07-23T06:50:08;99691.80;;;26.00;22.42
49529;BME280;35423;37.320;-121.762;2022-07-23T06:52:32;99693.03;;;26.05;22.39
49529;BME280;35423;37.320;-121.762;2022-07-23T06:55:04;99694.42;;;26.41;22.49
49529;BME280;35423;37.320;-121.762;2022-07-23T06:57:26;99690.54;;;26.11;22.31
49529;BME280;35423;37.320;-121.762;2022-07-23T06:59:57;99687.73;;;26.05;22.27
49529;BME280;35423;37.320;-121.762;2022-07-23T07:02:27;99684.94;;;25.77;22.33
49529;BME280;35423;37.320;-121.762;2022-07-23T07:04:51;99681.29;;;26.22;22.40
49529;BME280;35423;37.320;-121.762;2022-07-23T07:07:17;99676.20;;;25.98;22.55
49529;BME280;35423;37.320;-121.762;2022-07-23T07:09:44;99678.99;;;25.69;22.61
49529;BME280;35423;37.320;-121.762;2022-07-23T07:12:16;99680.88;;;25.67;22.67
49529;BME280;35423;37.320;-121.762;2022-07-23T07:14:44;99679.64;;;25.78;22.84
49529;BME280;35423;37.320;-121.762;2022-07-23T07:17:11;99677.83;;;25.77;22.79
49529;BME280;35423;37.320;-121.762;2022-07-23T07:19:39;99679.31;;;25.79;22.52
49529;BME280;35423;37.320;-121.762;2022-07-23T07:22:04;99675.40;;;25.71;22.42
49529;BME280;35423;37.320;-121.762;2022-07-23T07:24:34;99671.75;;;25.59;22.53
49529;BME280;35423;37.320;-121.762;2022-07-23T07:26:59;99673.20;;;25.51;22.71
49529;BME280;35423;37.320;-121.762;2022-07-23T07:29:25;99668.02;;;25.70;22.74
49529;BME280;35423;37.320;-121.762;2022-07-23T07:31:51;99664.42;;;25.49;23.03
49529;BME280;35423;37.320;-121.762;2022-07-23T07:34:25;99658.89;;;25.31;23.25
49529;BME280;35423;37.320;-121.762;2022-07-23T07:36:50;99654.08;;;25.07;23.36
49529;BME280;35423;37.320;-121.762;2022-07-23T07:39:16;99651.41;;;25.49;23.50
49529;BME280;35423;37.320;-121.762;2022-07-23T07:41:44;99648.73;;;25.49;23.53
49529;BME280;35423;37.320;-121.762;2022-07-23T07:44:17;99649.77;;;25.18;23.54
49529;BME280;35423;37.320;-121.762;2022-07-23T07:46:46;99648.55;;;25.37;23.61
49529;BME280;35423;37.320;-121.762;2022-07-23T07:49:11;99649.34;;;25.08;23.57
49529;BME280;35423;37.320;-121.762;2022-07-23T07:51:38;99652.33;;;25.04;23.48
49529;BME280;35423;37.320;-121.762;2022-07-23T07:54:06;99649.51;;;24.96;23.37
49529;BME280;35423;37.320;-121.762;2022-07-23T07:56:34;99649.86;;;25.11;23.42
49529;BME280;35423;37.320;-121.762;2022-07-23T07:58:59;99646.48;;;24.79;23.54
49529;BME280;35423;37.320;-121.762;2022-07-23T08:01:26;99639.55;;;24.97;23.73
49529;BME280;35423;37.320;-121.762;2022-07-23T08:03:51;99638.54;;;24.57;23.87
49529;BME280;35423;37.320;-121.762;2022-07-23T08:06:17;99641.53;;;24.79;23.82
49529;BME280;35423;37.320;-121.762;2022-07-23T08:08:42;99643.44;;;24.92;23.86
49529;BME280;35423;37.320;-121.762;2022-07-23T08:11:16;99647.34;;;24.54;24.01
49529;BME280;35423;37.320;-121.762;2022-07-23T08:13:44;99644.21;;;24.51;24.15
49529;BME280;35423;37.320;-121.762;2022-07-23T08:16:11;99643.51;;;24.40;24.23
49529;BME280;35423;37.320;-121.762;2022-07-23T08:18:37;99643.56;;;24.31;24.32
49529;BME280;35423;37.320;-121.762;2022-07-23T08:21:09;99645.04;;;24.21;24.37
49529;BME280;35423;37.320;-121.762;2022-07-23T08:23:34;99648.20;;;24.16;24.47
49529;BME280;35423;37.320;-121.762;2022-07-23T08:26:01;99654.36;;;24.08;24.57
49529;BME280;35423;37.320;-121.762;2022-07-23T08:28:28;99653.31;;;24.10;24.57
49529;BME280;35423;37.320;-121.762;2022-07-23T08:30:56;99650.72;;;24.22;24.50
49529;BME280;35423;37.320;-121.762;2022-07-23T08:33:22;99651.42;;;24.15;24.55
49529;BME280;35423;37.320;-121.762;2022-07-23T08:35:50;99650.51;;;24.31;24.57
49529;BME280;35423;37.320;-121.762;2022-07-23T08:38:18;99652.90;;;24.16;24.77
49529;BME280;35423;37.320;-121.762;2022-07-23T08:40:52;99649.81;;;24.08;24.88
49529;BME280;35423;37.320;-121.762;2022-07-23T08:43:19;99651.55;;;23.99;24.91
49529;BME280;35423;37.320;-121.762;2022-07-23T08:45:44;99651.61;;;23.65;25.09
49529;BME280;35423;37.320;-121.762;2022-07-23T08:48:11;99654.19;;;23.87;25.10
49529;BME280;35423;37.320;-121.762;2022-07-23T08:50:36;99656.37;;;23.76;25.27
49529;BME280;35423;37.320;-121.762;2022-07-23T08:53:07;99657.21;;;23.71;25.40
49529;BME280;35423;37.320;-121.762;2022-07-23T08:55:33;99656.36;;;23.60;25.47
49529;BME280;35423;37.320;-121.762;2022-07-23T08:57:59;99651.39;;;23.51;25.47
49529;BME280;35423;37.320;-121.762;2022-07-23T09:00:25;99652.10;;;23.46;25.48
49529;BME280;35423;37.320;-121.762;2022-07-23T09:02:51;99651.39;;;23.19;25.54
49529;BME280;35423;37.320;-121.762;2022-07-23T09:05:17;99651.45;;;23.35;25.59
49529;BME280;35423;37.320;-121.762;2022-07-23T09:10:09;99655.63;;;23.18;25.73
49529;BME280;35423;37.320;-121.762;2022-07-23T09:12:33;99656.63;;;23.38;25.71
49529;BME280;35423;37.320;-121.762;2022-07-23T09:15:06;99654.79;;;23.35;25.75
49529;BME280;35423;37.320;-121.762;2022-07-23T09:17:26;99655.60;;;23.02;25.90
49529;BME280;35423;37.320;-121.762;2022-07-23T09:19:52;99654.04;;;23.42;25.91
49529;BME280;35423;37.320;-121.762;2022-07-23T09:22:21;99654.63;;;23.10;26.05
49529;BME280;35423;37.320;-121.762;2022-07-23T09:27:16;99661.12;;;23.10;26.18
49529;BME280;35423;37.320;-121.762;2022-07-23T09:32:14;99663.43;;;22.69;26.22
49529;BME280;35423;37.320;-121.762;2022-07-23T09:34:37;99666.80;;;22.89;26.32
49529;BME280;35423;37.320;-121.762;2022-07-23T09:37:09;99663.37;;;22.89;26.39
49529;BME280;35423;37.320;-121.762;2022-07-23T09:39:32;99664.68;;;22.58;26.38
49529;BME280;35423;37.320;-121.762;2022-07-23T09:41:56;99664.31;;;22.53;26.29
49529;BME280;35423;37.320;-121.762;2022-07-23T09:44:22;99664.47;;;22.63;26.34
49529;BME280;35423;37.320;-121.762;2022-07-23T09:46:48;99665.46;;;22.47;26.54
49529;BME280;35423;37.320;-121.762;2022-07-23T09:49:19;99666.57;;;22.40;26.65
49529;BME280;35423;37.320;-121.762;2022-07-23T09:51:47;99669.76;;;22.39;26.85
49529;BME280;35423;37.320;-121.762;2022-07-23T09:54:22;99674.64;;;22.28;26.99
49529;BME280;35423;37.320;-121.762;2022-07-23T09:56:43;99677.05;;;22.26;27.07
49529;BME280;35423;37.320;-121.762;2022-07-23T09:59:09;99681.07;;;22.22;27.15
49529;BME280;35423;37.320;-121.762;2022-07-23T10:01:35;99686.33;;;22.16;27.25
49529;BME280;35423;37.320;-121.762;2022-07-23T10:04:01;99683.21;;;22.09;27.36
49529;BME280;35423;37.320;-121.762;2022-07-23T10:06:26;99686.94;;;22.28;27.48
49529;BME280;35423;37.320;-121.762;2022-07-23T10:08:54;99686.27;;;22.02;27.66
49529;BME280;35423;37.320;-121.762;2022-07-23T10:11:18;99686.52;;;22.18;27.75
49529;BME280;35423;37.320;-121.762;2022-07-23T10:13:45;99685.67;;;21.95;27.68
49529;BME280;35423;37.320;-121.762;2022-07-23T10:16:14;99683.24;;;22.07;27.90
49529;BME280;35423;37.320;-121.762;2022-07-23T10:18:40;99683.03;;;21.71;27.93
49529;BME280;35423;37.320;-121.762;2022-07-23T10:21:08;99681.78;;;22.09;27.92
49529;BME280;35423;37.320;-121.762;2022-07-23T10:23:36;99685.05;;;21.67;28.01
49529;BME280;35423;37.320;-121.762;2022-07-23T10:26:03;99680.01;;;21.68;27.97
49529;BME280;35423;37.320;-121.762;2022-07-23T10:28:39;99680.30;;;21.80;27.99
49529;BME280;35423;37.320;-121.762;2022-07-23T10:30:59;99676.36;;;21.18;28.08
49529;BME280;35423;37.320;-121.762;2022-07-23T10:33:27;99676.49;;;21.45;28.05
49529;BME280;35423;37.320;-121.762;2022-07-23T10:35:48;99679.17;;;21.58;28.11
49529;BME280;35423;37.320;-121.762;2022-07-23T10:38:15;99674.33;;;21.29;28.30
49529;BME280;35423;37.320;-121.762;2022-07-23T10:40:35;99673.05;;;21.50;28.39
49529;BME280;35423;37.320;-121.762;2022-07-23T10:43:01;99673.17;;;21.44;28.43
49529;BME280;35423;37.320;-121.762;2022-07-23T10:45:31;99672.59;;;21.35;28.45
49529;BME280;35423;37.320;-121.762;2022-07-23T10:48:10;99675.24;;;21.03;28.59
49529;BME280;35423;37.320;-121.762;2022-07-23T10:50:26;99671.12;;;21.16;28.82
49529;BME280;35423;37.320;-121.762;2022-07-23T10:57:47;99680.10;;;20.97;29.12
49529;BME280;35423;37.320;-121.762;2022-07-23T11:00:16;99677.98;;;20.94;29.15
49529;BME280;35423;37.320;-121.762;2022-07-23T11:02:36;99679.22;;;20.89;29.24
49529;BME280;35423;37.320;-121.762;2022-07-23T11:05:04;99684.85;;;21.03;29.36
49529;BME280;35423;37.320;-121.762;2022-07-23T11:07:30;99685.46;;;20.70;29.47
49529;BME280;35423;37.320;-121.762;2022-07-23T11:09:56;99684.47;;;20.61;29.60
49529;BME280;35423;37.320;-121.762;2022-07-23T11:17:19;99691.47;;;20.46;29.99
49529;BME280;35423;37.320;-121.762;2022-07-23T11:22:06;99694.80;;;20.41;30.32
49529;BME280;35423;37.320;-121.762;2022-07-23T11:24:32;99691.43;;;20.87;30.56
49529;BME280;35423;37.320;-121.762;2022-07-23T11:27:02;99694.17;;;20.80;30.65
49529;BME280;35423;37.320;-121.762;2022-07-23T11:31:57;99695.75;;;20.35;30.82
49529;BME280;35423;37.320;-121.762;2022-07-23T11:34:28;99691.69;;;20.41;30.99
49529;BME280;35423;37.320;-121.762;2022-07-23T11:36:49;99697.24;;;20.30;30.99
49529;BME280;35423;37.320;-121.762;2022-07-23T11:39:10;99700.06;;;20.23;31.05
49529;BME280;35423;37.320;-121.762;2022-07-23T11:41:43;99700.38;;;20.43;31.06
49529;BME280;35423;37.320;-121.762;2022-07-23T11:44:02;99700.93;;;20.11;31.10
49529;BME280;35423;37.320;-121.762;2022-07-23T11:46:27;99698.36;;;20.35;31.23
49529;BME280;35423;37.320;-121.762;2022-07-23T11:49:01;99700.37;;;20.34;31.33
49529;BME280;35423;37.320;-121.762;2022-07-23T11:51:26;99704.82;;;20.31;31.28
49529;BME280;35423;37.320;-121.762;2022-07-23T11:53:46;99708.60;;;20.21;31.38
49529;BME280;35423;37.320;-121.762;2022-07-23T11:56:13;99713.89;;;20.18;31.44
49529;BME280;35423;37.320;-121.762;2022-07-23T11:58:39;99718.50;;;20.18;31.56
49529;BME280;35423;37.320;-121.762;2022-07-23T12:01:06;99722.38;;;20.18;31.64
49529;BME280;35423;37.320;-121.762;2022-07-23T12:03:32;99725.86;;;20.08;31.71
49529;BME280;35423;37.320;-121.762;2022-07-23T12:05:59;99732.44;;;20.10;31.78
49529;BME280;35423;37.320;-121.762;2022-07-23T12:08:23;99736.25;;;19.69;31.78
49529;BME280;35423;37.320;-121.762;2022-07-23T12:10:49;99736.41;;;19.83;31.77
49529;BME280;35423;37.320;-121.762;2022-07-23T12:13:16;99738.70;;;20.05;31.77
49529;BME280;35423;37.320;-121.762;2022-07-23T12:15:42;99738.46;;;20.20;31.83
49529;BME280;35423;37.320;-121.762;2022-07-23T12:18:11;99738.81;;;20.15;31.79
49529;BME280;35423;37.320;-121.762;2022-07-23T12:20:35;99735.94;;;19.54;31.86
49529;BME280;35423;37.320;-121.762;2022-07-23T12:23:01;99741.04;;;19.47;32.01
49529;BME280;35423;37.320;-121.762;2022-07-23T12:25:29;99740.64;;;19.62;32.13
49529;BME280;35423;37.320;-121.762;2022-07-23T12:27:59;99741.09;;;19.41;32.11
49529;BME280;35423;37.320;-121.762;2022-07-23T12:30:25;99744.53;;;19.57;32.18
49529;BME280;35423;37.320;-121.762;2022-07-23T12:32:52;99742.15;;;19.58;32.03
49529;BME280;35423;37.320;-121.762;2022-07-23T12:35:21;99741.04;;;19.33;32.03
49529;BME280;35423;37.320;-121.762;2022-07-23T12:37:45;99744.32;;;19.27;32.16
49529;BME280;35423;37.320;-121.762;2022-07-23T12:40:20;99741.02;;;19.64;32.23
49529;BME280;35423;37.320;-121.762;2022-07-23T12:42:42;99741.74;;;19.09;32.38
49529;BME280;35423;37.320;-121.762;2022-07-23T12:45:06;99739.54;;;19.62;32.55
49529;BME280;35423;37.320;-121.762;2022-07-23T12:47:28;99736.46;;;19.40;32.71
49529;BME280;35423;37.320;-121.762;2022-07-23T12:49:55;99732.56;;;19.11;32.76
49529;BME280;35423;37.320;-121.762;2022-07-23T12:52:22;99730.98;;;19.25;32.76